createdAt,value
2018-06-02T00:01:44.431Z,16.10
2018-06-02T00:04:12.782Z,16.30
2018-06-02T00:06:40.341Z,16.30
2018-06-02T00:09:07.891Z,16.40
2018-06-02T00:11:35.461Z,16.40
2018-06-02T00:14:03.019Z,16.50
2018-06-02T00:16:30.561Z,16.50
2018-06-02T00:18:58.131Z,16.50
2018-06-02T00:21:25.675Z,16.50
2018-06-02T00:23:53.228Z,16.50
2018-06-02T00:26:20.820Z,16.40
2018-06-02T00:28:48.372Z,16.40
2018-06-02T00:31:15.920Z,16.40
2018-06-02T00:33:43.497Z,16.40
2018-06-02T00:39:03.725Z,16.20
2018-06-02T00:41:32.036Z,16.00
2018-06-02T00:43:59.580Z,16.00
2018-06-02T00:46:27.142Z,15.90
2018-06-02T00:48:54.713Z,15.80
2018-06-02T00:51:22.269Z,15.80
2018-06-02T00:53:49.842Z,15.80
2018-06-02T00:56:17.693Z,15.80
2018-06-02T00:58:45.257Z,15.80
2018-06-02T01:01:12.801Z,15.70
2018-06-02T01:03:55.693Z,15.70
2018-06-02T01:12:10.061Z,15.60
2018-06-02T01:14:37.620Z,15.50
2018-06-02T01:17:05.180Z,15.50
2018-06-02T01:19:32.752Z,15.40
2018-06-02T01:22:00.303Z,15.30
2018-06-02T01:24:27.870Z,15.30
2018-06-02T01:26:55.423Z,15.30
2018-06-02T01:29:22.995Z,15.20
2018-06-02T01:31:51.317Z,15.20
2018-06-02T01:34:18.902Z,15.20
2018-06-02T01:36:46.463Z,15.20
2018-06-02T01:39:14.013Z,15.10
2018-06-02T01:41:41.574Z,15.10
2018-06-02T01:47:09.235Z,15.00
2018-06-02T01:49:36.782Z,15.00
2018-06-02T01:52:04.329Z,15.00
2018-06-02T01:54:32.661Z,14.90
2018-06-02T01:57:00.213Z,14.90
2018-06-02T01:59:27.788Z,14.90
2018-06-02T02:01:55.349Z,14.80
2018-06-02T02:04:22.921Z,14.80
2018-06-02T02:06:50.469Z,14.70
2018-06-02T02:09:18.019Z,14.70
2018-06-02T02:11:45.585Z,14.70
2018-06-02T02:14:13.137Z,14.60
2018-06-02T02:16:40.713Z,14.70
2018-06-02T02:19:08.257Z,14.60
2018-06-02T02:21:35.809Z,14.60
2018-06-02T02:24:03.402Z,14.60
2018-06-02T02:26:30.952Z,14.60
2018-06-02T02:28:58.535Z,14.60
2018-06-02T02:31:26.845Z,14.60
2018-06-02T02:33:54.419Z,14.60
2018-06-02T02:36:21.968Z,14.60
2018-06-02T02:38:49.526Z,14.60
2018-06-02T02:41:17.090Z,14.60
2018-06-02T02:43:44.645Z,14.70
2018-06-02T02:46:12.216Z,14.60
2018-06-02T02:48:39.785Z,14.60
2018-06-02T02:51:08.106Z,14.60
2018-06-02T02:53:36.443Z,14.50
2018-06-02T02:56:03.994Z,14.50
2018-06-02T02:58:31.566Z,14.50
2018-06-02T03:00:59.122Z,14.50
2018-06-02T03:03:26.673Z,14.40
2018-06-02T03:05:54.234Z,14.40
2018-06-02T03:08:21.781Z,14.40
2018-06-02T03:10:49.354Z,14.50
2018-06-02T03:13:16.893Z,14.50
2018-06-02T03:15:44.469Z,14.50
2018-06-02T03:18:12.015Z,14.40
2018-06-02T03:20:39.565Z,14.40
2018-06-02T03:23:07.145Z,14.40
2018-06-02T03:25:34.717Z,14.40
2018-06-02T03:28:22.240Z,14.40
2018-06-02T03:30:49.822Z,14.40
2018-06-02T03:33:30.259Z,14.40
2018-06-02T03:35:57.834Z,14.40
2018-06-02T03:38:25.375Z,14.40
2018-06-02T03:40:52.966Z,14.40
2018-06-02T03:46:13.290Z,14.40
2018-06-02T03:48:41.602Z,14.40
2018-06-02T03:51:09.152Z,14.40
2018-06-02T03:53:36.721Z,14.50
2018-06-02T03:56:04.267Z,14.50
2018-06-02T03:58:31.810Z,14.50
2018-06-02T04:00:59.409Z,14.50
2018-06-02T04:03:26.954Z,14.50
2018-06-02T04:05:54.499Z,14.50
2018-06-02T04:08:22.092Z,14.50
2018-06-02T04:10:49.673Z,14.50
2018-06-02T04:13:17.223Z,14.50
2018-06-02T04:15:45.575Z,14.50
2018-06-02T04:18:13.126Z,14.50
2018-06-02T04:20:40.677Z,14.50
2018-06-02T04:23:08.252Z,14.50
2018-06-02T04:25:35.806Z,14.50
2018-06-02T04:28:03.369Z,14.50
2018-06-02T04:30:30.949Z,14.50
2018-06-02T04:32:58.494Z,14.50
2018-06-02T04:35:26.051Z,14.50
2018-06-02T04:37:53.629Z,14.60
2018-06-02T04:40:21.174Z,14.60
2018-06-02T04:42:48.727Z,14.60
2018-06-02T04:45:16.305Z,14.60
2018-06-02T04:47:47.226Z,14.60
2018-06-02T04:50:14.784Z,14.70
2018-06-02T04:52:42.363Z,14.70
2018-06-02T04:55:09.931Z,14.80
2018-06-02T04:57:37.480Z,14.90
2018-06-02T05:00:05.053Z,14.90
2018-06-02T05:02:32.596Z,14.90
2018-06-02T05:05:02.173Z,15.00
2018-06-02T05:07:29.752Z,15.00
2018-06-02T05:09:57.302Z,15.00
2018-06-02T05:12:24.853Z,15.10
2018-06-02T05:14:52.437Z,15.20
2018-06-02T05:17:19.990Z,15.20
2018-06-02T05:19:47.543Z,15.40
2018-06-02T05:22:15.122Z,15.50
2018-06-02T05:24:42.670Z,15.70
2018-06-02T05:27:10.259Z,15.90
2018-06-02T05:29:42.419Z,16.20
2018-06-02T05:32:11.346Z,16.20
2018-06-02T05:34:39.695Z,16.90
2018-06-02T05:37:07.239Z,16.90
2018-06-02T05:39:34.784Z,17.70
2018-06-02T05:42:02.353Z,18.30
2018-06-02T05:44:30.872Z,20.20
2018-06-02T05:46:59.217Z,20.60
2018-06-02T05:49:26.773Z,20.60
2018-06-02T05:51:54.314Z,20.90
2018-06-02T05:54:37.476Z,21.60
2018-06-02T05:57:04.982Z,22.10
2018-06-02T05:59:35.060Z,22.30
2018-06-02T06:02:19.898Z,22.00
2018-06-02T06:04:47.467Z,22.10
2018-06-02T06:07:15.022Z,21.80
2018-06-02T06:09:42.564Z,21.90
2018-06-02T06:12:10.145Z,21.90
2018-06-02T06:14:37.749Z,22.10
2018-06-02T06:17:06.081Z,22.20
2018-06-02T06:19:46.743Z,22.20
2018-06-02T06:22:14.317Z,22.50
2018-06-02T06:24:41.870Z,21.60
2018-06-02T06:27:10.010Z,21.50
2018-06-02T06:29:37.580Z,22.40
2018-06-02T06:32:05.332Z,22.70
2018-06-02T06:34:32.892Z,22.80
2018-06-02T06:37:00.436Z,23.10
2018-06-02T06:39:27.982Z,22.90
2018-06-02T06:41:56.347Z,23.10
2018-06-02T06:44:24.716Z,22.80
2018-06-02T06:46:52.249Z,22.70
2018-06-02T06:49:19.798Z,23.30
2018-06-02T06:51:47.428Z,22.60
2018-06-02T06:54:14.993Z,22.30
2018-06-02T06:56:42.538Z,21.90
2018-06-02T06:59:31.353Z,20.80
2018-06-02T07:01:58.902Z,20.80
2018-06-02T07:04:26.444Z,20.70
2018-06-02T07:06:54.013Z,20.60
2018-06-02T07:09:21.562Z,20.60
2018-06-02T07:11:49.147Z,20.40
2018-06-02T07:14:16.702Z,20.40
2018-06-02T07:16:45.269Z,20.40
2018-06-02T07:19:12.820Z,20.00
2018-06-02T07:21:42.376Z,19.80
2018-06-02T07:24:09.925Z,19.60
2018-06-02T07:26:37.490Z,19.50
2018-06-02T07:29:07.057Z,19.60
2018-06-02T07:31:38.121Z,19.90
2018-06-02T07:34:05.677Z,20.10
2018-06-02T07:36:41.291Z,20.30
2018-06-02T07:39:08.843Z,20.40
2018-06-02T07:41:36.413Z,20.60
2018-06-02T07:47:01.493Z,20.10
2018-06-02T07:49:29.041Z,20.10
2018-06-02T07:51:56.602Z,20.30
2018-06-02T07:54:24.142Z,20.50
2018-06-02T07:56:51.730Z,20.50
2018-06-02T07:59:19.276Z,20.70
2018-06-02T08:01:46.867Z,20.90
2018-06-02T08:04:15.177Z,21.60
2018-06-02T08:06:42.750Z,21.50
2018-06-02T08:09:10.298Z,21.60
2018-06-02T08:11:37.872Z,21.30
2018-06-02T08:14:05.421Z,21.10
2018-06-02T08:16:32.990Z,21.20
2018-06-02T08:19:01.338Z,21.10
2018-06-02T08:21:30.834Z,21.10
2018-06-02T08:23:58.458Z,20.80
2018-06-02T08:26:36.744Z,21.10
2018-06-02T08:29:05.326Z,21.40
2018-06-02T08:31:32.876Z,21.50
2018-06-02T08:34:00.443Z,21.90
2018-06-02T08:36:41.217Z,21.80
2018-06-02T08:39:08.776Z,21.70
2018-06-02T08:41:36.337Z,21.50
2018-06-02T08:44:03.891Z,21.70
2018-06-02T08:46:31.523Z,21.50
2018-06-02T08:48:59.817Z,21.40
2018-06-02T08:51:27.393Z,21.40
2018-06-02T08:53:54.938Z,21.70
2018-06-02T08:56:22.478Z,21.60
2018-06-02T08:58:50.054Z,21.80
2018-06-02T09:01:17.601Z,22.20
2018-06-02T09:03:45.174Z,22.50
2018-06-02T09:06:12.722Z,22.90
2018-06-02T09:08:40.273Z,23.00
2018-06-02T09:11:07.860Z,23.00
2018-06-02T09:13:35.417Z,23.00
2018-06-02T09:16:03.073Z,22.90
2018-06-02T09:18:30.625Z,22.90
2018-06-02T09:20:58.184Z,23.00
2018-06-02T09:23:25.751Z,23.10
2018-06-02T09:25:53.298Z,23.00
2018-06-02T09:28:20.867Z,22.80
2018-06-02T09:30:51.476Z,22.90
2018-06-02T09:33:19.020Z,23.10
2018-06-02T09:35:47.358Z,23.10
2018-06-02T09:38:14.907Z,23.10
2018-06-02T09:40:42.482Z,23.30
2018-06-02T09:43:10.031Z,23.20
2018-06-02T09:45:37.585Z,23.20
2018-06-02T09:48:05.240Z,23.30
2018-06-02T09:50:32.793Z,23.60
2018-06-02T09:53:00.367Z,23.20
2018-06-02T09:55:27.937Z,23.10
2018-06-02T09:57:55.501Z,23.10
2018-06-02T10:00:25.856Z,23.00
2018-06-02T10:02:54.183Z,22.40
2018-06-02T10:05:21.747Z,22.30
2018-06-02T10:07:49.281Z,22.20
2018-06-02T10:10:16.851Z,22.10
2018-06-02T10:12:44.409Z,22.40
2018-06-02T10:15:12.025Z,22.80
2018-06-02T10:17:40.339Z,23.50
2018-06-02T10:20:07.889Z,23.50
2018-06-02T10:22:35.461Z,23.50
2018-06-02T10:25:03.020Z,23.70
2018-06-02T10:27:30.602Z,23.90
2018-06-02T10:30:02.066Z,23.70
2018-06-02T10:32:29.669Z,23.30
2018-06-02T10:34:57.237Z,23.50
2018-06-02T10:37:24.777Z,23.30
2018-06-02T10:39:53.113Z,23.10
2018-06-02T10:42:20.655Z,23.10
2018-06-02T10:45:05.613Z,23.20
2018-06-02T10:47:33.163Z,23.00
2018-06-02T10:50:00.741Z,22.70
2018-06-02T10:52:28.387Z,22.30
2018-06-02T10:54:55.954Z,22.20
2018-06-02T10:57:23.501Z,22.20
2018-06-02T10:59:51.044Z,22.00
2018-06-02T11:02:19.393Z,22.20
2018-06-02T11:04:47.759Z,22.20
2018-06-02T11:07:15.361Z,22.60
2018-06-02T11:09:50.250Z,23.00
2018-06-02T11:12:17.817Z,23.00
2018-06-02T11:14:45.358Z,23.10
2018-06-02T11:17:12.904Z,23.40
2018-06-02T11:19:40.473Z,23.90
2018-06-02T11:22:08.039Z,24.10
2018-06-02T11:24:35.611Z,24.00
2018-06-02T11:27:03.170Z,24.20
2018-06-02T11:29:30.706Z,24.60
2018-06-02T11:31:58.309Z,24.50
2018-06-02T11:34:25.865Z,24.40
2018-06-02T11:36:53.442Z,24.00
2018-06-02T11:39:21.764Z,23.60
2018-06-02T11:41:49.336Z,23.60
2018-06-02T11:44:16.910Z,23.70
2018-06-02T11:46:44.471Z,23.30
2018-06-02T11:49:12.025Z,23.10
2018-06-02T11:51:39.602Z,23.20
2018-06-02T11:54:07.924Z,24.50
2018-06-02T11:56:35.511Z,24.50
2018-06-02T11:59:03.080Z,24.70
2018-06-02T12:01:30.656Z,24.80
2018-06-02T12:03:58.997Z,24.10
2018-06-02T12:06:26.555Z,24.10
2018-06-02T12:08:54.124Z,24.00
2018-06-02T12:11:21.710Z,23.60
2018-06-02T12:13:49.333Z,23.80
2018-06-02T12:16:16.856Z,24.00
2018-06-02T12:18:45.428Z,24.40
2018-06-02T12:21:13.764Z,24.90
2018-06-02T12:23:41.330Z,24.80
2018-06-02T12:26:08.917Z,25.40
2018-06-02T12:28:37.249Z,25.40
2018-06-02T12:31:04.798Z,25.30
2018-06-02T12:33:32.399Z,25.00
2018-06-02T12:35:59.947Z,25.30
2018-06-02T12:38:27.536Z,25.10
2018-06-02T12:40:55.857Z,25.00
2018-06-02T12:43:23.412Z,25.10
2018-06-02T12:45:57.477Z,25.00
2018-06-02T12:48:25.025Z,24.80
2018-06-02T12:50:52.594Z,24.70
2018-06-02T12:53:20.194Z,24.60
2018-06-02T12:55:48.476Z,24.70
2018-06-02T12:58:16.050Z,24.70
2018-06-02T13:00:43.597Z,24.80
2018-06-02T13:03:11.285Z,24.80
2018-06-02T13:05:38.837Z,24.60
2018-06-02T13:08:06.378Z,24.60
2018-06-02T13:10:33.988Z,24.80
2018-06-02T13:13:01.529Z,24.40
2018-06-02T13:15:29.100Z,24.50
2018-06-02T13:17:56.653Z,25.00
2018-06-02T13:20:24.201Z,25.30
2018-06-02T13:22:51.766Z,25.40
2018-06-02T13:25:19.305Z,25.70
2018-06-02T13:27:46.873Z,25.90
2018-06-02T13:30:14.425Z,25.90
2018-06-02T13:32:41.960Z,25.70
2018-06-02T13:35:09.522Z,25.00
2018-06-02T13:37:37.064Z,24.90
2018-06-02T13:40:05.393Z,25.30
2018-06-02T13:42:32.930Z,25.20
2018-06-02T13:45:00.500Z,25.50
2018-06-02T13:47:28.036Z,25.90
2018-06-02T13:50:01.058Z,25.70
2018-06-02T13:52:28.601Z,25.60
2018-06-02T13:54:56.139Z,25.60
2018-06-02T13:57:23.714Z,25.80
2018-06-02T13:59:51.275Z,26.00
2018-06-02T14:02:18.902Z,25.70
2018-06-02T14:04:46.418Z,25.70
2018-06-02T14:07:13.986Z,24.90
2018-06-02T14:09:41.711Z,25.10
2018-06-02T14:12:09.255Z,25.10
2018-06-02T14:14:36.839Z,24.60
2018-06-02T14:17:04.381Z,24.10
2018-06-02T14:19:31.953Z,23.80
2018-06-02T14:21:59.500Z,23.70
2018-06-02T14:24:27.050Z,23.70
2018-06-02T14:27:01.357Z,23.90
2018-06-02T14:29:29.675Z,24.30
2018-06-02T14:31:57.266Z,24.30
2018-06-02T14:34:24.818Z,24.70
2018-06-02T14:36:53.137Z,25.10
2018-06-02T14:39:20.702Z,25.00
2018-06-02T14:41:49.279Z,25.20
2018-06-02T14:44:16.856Z,25.10
2018-06-02T14:46:44.413Z,25.20
2018-06-02T14:49:13.857Z,25.50
2018-06-02T14:51:41.393Z,25.60
2018-06-02T14:54:08.971Z,25.60
2018-06-02T14:56:36.527Z,25.70
2018-06-02T14:59:04.073Z,25.80
2018-06-02T15:01:41.841Z,25.50
2018-06-02T15:04:09.382Z,25.70
2018-06-02T15:06:37.685Z,25.50
2018-06-02T15:09:06.168Z,25.50
2018-06-02T15:11:33.720Z,25.50
2018-06-02T15:14:01.293Z,25.20
2018-06-02T15:16:28.873Z,25.30
2018-06-02T15:18:56.489Z,25.30
2018-06-02T15:21:24.034Z,25.50
2018-06-02T15:23:51.586Z,25.40
2018-06-02T15:26:19.160Z,25.10
2018-06-02T15:28:47.477Z,24.40
2018-06-02T15:31:15.086Z,24.40
2018-06-02T15:33:42.601Z,24.60
2018-06-02T15:36:10.151Z,25.00
2018-06-02T15:38:37.713Z,25.50
2018-06-02T15:41:05.253Z,25.90
2018-06-02T15:43:32.813Z,26.30
2018-06-02T15:46:00.364Z,26.50
2018-06-02T15:48:27.932Z,26.70
2018-06-02T15:50:55.475Z,26.90
2018-06-02T15:53:23.034Z,26.40
2018-06-02T15:55:51.368Z,25.80
2018-06-02T15:58:18.948Z,25.70
2018-06-02T16:00:46.517Z,26.00
2018-06-02T16:03:14.840Z,25.60
2018-06-02T16:05:42.528Z,25.60
2018-06-02T16:08:10.112Z,25.60
2018-06-02T16:10:42.936Z,25.70
2018-06-02T16:13:10.610Z,25.70
2018-06-02T16:15:38.187Z,26.10
2018-06-02T16:18:05.757Z,25.70
2018-06-02T16:20:33.797Z,26.00
2018-06-02T16:23:01.342Z,25.50
2018-06-02T16:25:28.911Z,25.60
2018-06-02T16:27:56.466Z,25.40
2018-06-02T16:30:24.063Z,25.50
2018-06-02T16:32:51.631Z,25.40
2018-06-02T16:35:19.168Z,25.50
2018-06-02T16:37:46.739Z,26.00
2018-06-02T16:40:14.330Z,26.20
2018-06-02T16:42:41.915Z,26.00
2018-06-02T16:45:09.460Z,25.90
2018-06-02T16:47:37.088Z,25.70
2018-06-02T16:50:04.717Z,25.60
2018-06-02T16:52:32.298Z,25.50
2018-06-02T16:55:06.373Z,25.20
2018-06-02T16:57:33.918Z,25.30
2018-06-02T17:00:01.487Z,25.20
2018-06-02T17:02:29.041Z,25.10
2018-06-02T17:04:56.601Z,25.00
2018-06-02T17:07:24.153Z,25.10
2018-06-02T17:09:51.725Z,24.70
2018-06-02T17:12:19.264Z,24.90
2018-06-02T17:14:47.598Z,25.20
2018-06-02T17:17:15.897Z,25.30
2018-06-02T17:19:43.466Z,25.30
2018-06-02T17:22:11.776Z,24.80
2018-06-02T17:24:39.353Z,24.80
2018-06-02T17:27:06.910Z,24.80
2018-06-02T17:29:34.475Z,24.60
2018-06-02T17:32:02.029Z,24.20
2018-06-02T17:34:29.597Z,24.00
2018-06-02T17:36:57.138Z,24.20
2018-06-02T17:39:24.702Z,24.10
2018-06-02T17:41:52.246Z,23.90
2018-06-02T17:44:19.809Z,23.90
2018-06-02T17:46:47.356Z,23.60
2018-06-02T17:49:14.997Z,23.30
2018-06-02T17:51:42.538Z,23.20
2018-06-02T17:54:10.093Z,23.00
2018-06-02T17:56:37.657Z,23.00
2018-06-02T17:59:05.229Z,22.90
2018-06-02T18:01:32.778Z,22.80
2018-06-02T18:04:00.345Z,22.70
2018-06-02T18:06:27.882Z,22.60
2018-06-02T18:08:55.465Z,22.50
2018-06-02T18:11:23.010Z,22.50
2018-06-02T18:13:53.608Z,22.40
2018-06-02T18:16:21.153Z,22.30
2018-06-02T18:18:54.679Z,22.30
2018-06-02T18:21:22.232Z,22.10
2018-06-02T18:23:49.788Z,22.00
2018-06-02T18:26:17.339Z,22.00
2018-06-02T18:28:44.905Z,22.00
2018-06-02T18:31:12.471Z,22.00
2018-06-02T18:33:40.059Z,21.80
2018-06-02T18:36:07.605Z,21.70
2018-06-02T18:38:35.986Z,21.50
2018-06-02T18:41:05.466Z,21.50
2018-06-02T18:43:33.164Z,21.40
2018-06-02T18:46:00.736Z,21.40
2018-06-02T18:48:28.358Z,21.30
2018-06-02T18:50:55.904Z,21.20
2018-06-02T18:53:23.484Z,21.00
2018-06-02T18:56:05.389Z,20.90
2018-06-02T18:58:32.974Z,20.80
2018-06-02T19:01:00.512Z,20.70
2018-06-02T19:03:28.110Z,20.70
2018-06-02T19:06:04.262Z,20.50
2018-06-02T19:08:43.949Z,20.40
2018-06-02T19:11:11.493Z,20.30
2018-06-02T19:13:39.049Z,20.20
2018-06-02T19:16:06.600Z,20.20
2018-06-02T19:18:34.214Z,20.10
2018-06-02T19:21:02.531Z,20.00
2018-06-02T19:23:30.852Z,19.90
2018-06-02T19:25:58.467Z,19.90
2018-06-02T19:28:26.801Z,19.80
2018-06-02T19:30:54.353Z,19.70
2018-06-02T19:33:25.410Z,19.70
2018-06-02T19:35:52.961Z,19.60
2018-06-02T19:38:21.328Z,19.50
2018-06-02T19:41:00.985Z,19.50
2018-06-02T19:43:28.538Z,19.50
2018-06-02T19:45:56.097Z,19.40
2018-06-02T19:48:23.656Z,19.30
2018-06-02T19:50:52.232Z,19.20
2018-06-02T19:53:20.541Z,19.10
2018-06-02T19:55:49.079Z,19.10
2018-06-02T19:58:16.619Z,19.00
2018-06-02T20:00:44.200Z,18.90
2018-06-02T20:03:13.702Z,18.90
2018-06-02T20:06:14.011Z,18.90
2018-06-02T20:08:42.641Z,18.90
2018-06-02T20:11:11.345Z,18.80
2018-06-02T20:13:39.961Z,18.70
2018-06-02T20:16:08.630Z,18.70
2018-06-02T20:18:37.279Z,18.60
2018-06-02T20:21:06.079Z,18.60
2018-06-02T20:23:34.711Z,18.60
2018-06-02T20:26:09.174Z,18.60
2018-06-02T20:28:37.803Z,18.60
2018-06-02T20:31:06.483Z,18.70
2018-06-02T20:33:47.787Z,18.70
2018-06-02T20:36:16.527Z,18.70
2018-06-02T20:38:45.191Z,18.80
2018-06-02T20:41:13.883Z,18.70
2018-06-02T20:43:42.534Z,18.70
2018-06-02T20:46:11.224Z,18.70
2018-06-02T20:48:41.867Z,18.70
2018-06-02T20:51:29.421Z,18.70
2018-06-02T20:53:58.080Z,18.60
2018-06-02T20:56:26.789Z,18.60
2018-06-02T20:58:55.433Z,18.60
2018-06-02T21:01:24.123Z,18.50
2018-06-02T21:03:52.792Z,18.40
2018-06-02T21:06:21.456Z,18.40
2018-06-02T21:08:50.132Z,18.30
2018-06-02T21:11:18.783Z,18.30
2018-06-02T21:13:47.554Z,18.20
2018-06-02T21:16:16.152Z,18.20
2018-06-02T21:18:44.809Z,18.10
2018-06-02T21:21:13.487Z,18.00
2018-06-02T21:23:42.222Z,17.90
2018-06-02T21:26:10.889Z,17.90
2018-06-02T21:28:39.556Z,17.80
2018-06-02T21:31:08.201Z,17.80
2018-06-02T21:33:36.821Z,17.70
2018-06-02T21:36:05.533Z,17.80
2018-06-02T21:38:34.165Z,17.70
2018-06-02T21:41:02.865Z,17.70
2018-06-02T21:43:31.493Z,17.80
2018-06-02T21:46:00.178Z,17.80
2018-06-02T21:48:28.832Z,17.70
2018-06-02T21:50:57.543Z,17.60
2018-06-02T21:53:26.211Z,17.60
2018-06-02T21:55:54.870Z,17.50
2018-06-02T21:58:23.585Z,17.40
2018-06-02T22:00:52.272Z,17.30
2018-06-02T22:03:20.929Z,17.20
2018-06-02T22:05:56.825Z,17.20
2018-06-02T22:08:25.557Z,17.20
2018-06-02T22:10:56.163Z,17.20
2018-06-02T22:13:25.904Z,17.10
2018-06-02T22:15:54.668Z,17.20
2018-06-02T22:18:23.364Z,17.20
2018-06-02T22:20:52.009Z,17.10
2018-06-02T22:23:20.697Z,17.10
2018-06-02T22:25:49.361Z,17.00
2018-06-02T22:28:18.002Z,16.90
2018-06-02T22:30:58.926Z,16.80
2018-06-02T22:33:27.607Z,16.80
2018-06-02T22:35:56.314Z,16.80
2018-06-02T22:38:24.953Z,16.80
2018-06-02T22:40:53.609Z,16.80
2018-06-02T22:43:22.281Z,16.80
2018-06-02T22:45:50.929Z,16.80
2018-06-02T22:48:19.638Z,16.70
2018-06-02T22:50:48.327Z,16.70
2018-06-02T22:53:17.078Z,16.70
2018-06-02T22:55:46.064Z,16.80
2018-06-02T22:58:14.809Z,16.70
2018-06-02T23:00:43.594Z,16.80
2018-06-02T23:03:12.226Z,16.70
2018-06-02T23:05:41.029Z,16.70
2018-06-02T23:08:09.827Z,16.70
2018-06-02T23:10:38.521Z,16.60
2018-06-02T23:13:07.196Z,16.50
2018-06-02T23:15:35.869Z,16.40
2018-06-02T23:18:04.549Z,16.40
2018-06-02T23:20:33.197Z,16.40
2018-06-02T23:23:01.859Z,16.30
2018-06-02T23:25:30.506Z,16.30
2018-06-02T23:27:59.160Z,16.20
2018-06-02T23:30:27.804Z,16.20
2018-06-02T23:32:56.472Z,16.10
2018-06-02T23:35:25.144Z,16.10
2018-06-02T23:37:53.826Z,16.10
2018-06-02T23:40:22.479Z,16.10
2018-06-02T23:42:51.153Z,16.10
2018-06-02T23:45:19.806Z,16.10
2018-06-02T23:47:48.476Z,16.10
2018-06-02T23:50:17.128Z,16.10
2018-06-02T23:52:45.803Z,16.10
2018-06-02T23:55:14.467Z,16.10
2018-06-02T23:57:43.129Z,16.10
